Weippe, Idaho
Current Conditions -  °F | °C
As of 11:55 AM on Friday 24 Oct 2014 (Local Time) from KGIC Reporting Station
Overcast Overcast  
Wind Chill: 47°   Ceiling: 200
Heat Index: 47°   Visibility: 10mi
Dew Point: 46°   Wind: 0mph
Humidity: 95%   Direction: NA
Pressure: 30.14"   Gusts: NA
Location:  46.38°N, 115.94°W
Report Text: KGIC 241855Z AUTO 00000KT 10SM OVC002 09/08 A3014 RMK AO1 T00860078
Loading
Personal Weather Stations






























Interactive Weather Map
Tropical Storm Tracking
New forecast layout! Learn more

10-Day Weather Forecast

Advertisements
Track Severe Weather on mobile